CheckWX is a tool to help pilots better visualize weather data.  It is not intended as a substitute for an official pre-flight weather briefing.

05:55:37 UTC

EHWO METAR
Woensdrecht Air Base
Bergen Op Zoom, The Netherlands
Current

31 mins ago

EHWO 140525Z AUTO 22004KT 9999 FEW079 OVC100 16/11 Q1016 BLU
Observed
Jul-14 @ 05:25 UTC
Wind
  • 220° at 4 KTS
Visibility
10,000+ meters
Flight Rules
VFR
Cloud Levels
  • Few at 7,900' AGL
  • Overcast at 10,000' AGL
Temperature
16°C / 61°F
Dewpoint
11°C / 52°F
Humidity
72%
Altimeter
30" Hg
Pressure
1015.92 hPa
Previous

1 hour ago

EHWO 140455Z AUTO 23005KT 9999 OVC094 16/11 Q1016 BLU
Observed
Jul-14 @ 04:55 UTC
Wind
  • 230° at 5 KTS
Visibility
10,000+ meters
Flight Rules
VFR
Cloud Levels
  • Overcast at 9,400' AGL
Temperature
16°C / 61°F
Dewpoint
11°C / 52°F
Humidity
72%
Altimeter
30" Hg
Pressure
1015.92 hPa
Previous

2 hours ago

EHWO 140425Z AUTO 23005KT 9999 BKN076 BKN083 OVC095 16/11 Q1016 BLU
Observed
Jul-14 @ 04:25 UTC
Wind
  • 230° at 5 KTS
Visibility
10,000+ meters
Flight Rules
VFR
Cloud Levels
  • Broken at 7,600' AGL
  • Broken at 8,300' AGL
  • Overcast at 9,500' AGL
Temperature
16°C / 61°F
Dewpoint
11°C / 52°F
Humidity
72%
Altimeter
30" Hg
Pressure
1015.92 hPa